Time;durP1;ratioP1;P1;durP2;ratioP2;P2;SDS_P1;SDS_P2;PMS_P1;PMS_P2;Temp;Humidity;BMP_temperature;BMP_pressure;BME280_temperature;BME280_humidity;BME280_pressure;Samples;Min_cycle;Max_cycle;Signal;HPM_P1;HPM_P2
2023/12/17 00:01:24;;;;;;;5.07;2.80;;;;;;;2.77;100.00;100512.28;6092049;19;20017;-72
2023/12/17 00:03:26;;;;;;;5.65;2.95;;;;;;;2.87;100.00;100516.91;6093568;19;20395;-72
2023/12/17 00:05:26;;;;;;;7.30;3.25;;;;;;;2.81;100.00;100518.84;6092848;19;20006;-72
2023/12/17 00:07:27;;;;;;;9.35;3.45;;;;;;;2.76;100.00;100507.91;6094561;19;20011;-72
2023/12/17 00:09:27;;;;;;;9.85;3.40;;;;;;;2.71;100.00;100507.09;6092404;19;20026;-72
2023/12/17 00:11:27;;;;;;;11.13;4.00;;;;;;;2.68;100.00;100510.41;6091276;19;20333;-72
2023/12/17 00:13:28;;;;;;;5.68;3.55;;;;;;;2.67;100.00;100519.69;6094676;19;20727;-72
2023/12/17 00:15:28;;;;;;;6.00;2.97;;;;;;;2.72;100.00;100523.22;6093128;19;20014;-72
2023/12/17 00:17:28;;;;;;;5.65;3.20;;;;;;;2.74;100.00;100542.91;6093976;19;20418;-72
2023/12/17 00:19:29;;;;;;;12.23;3.08;;;;;;;2.73;100.00;100541.28;6094072;19;20325;-72
2023/12/17 00:21:29;;;;;;;6.85;3.08;;;;;;;2.69;100.00;100533.91;6092737;19;20028;-72
2023/12/17 00:23:29;;;;;;;5.68;2.67;;;;;;;2.63;100.00;100537.72;6091932;19;20481;-71
2023/12/17 00:25:32;;;;;;;6.88;2.80;;;;;;;2.58;100.00;100524.91;6092818;19;20003;-72
2023/12/17 00:27:33;;;;;;;6.55;3.05;;;;;;;2.50;100.00;100522.72;6093077;19;20364;-71
2023/12/17 00:29:33;;;;;;;5.45;2.78;;;;;;;2.45;100.00;100511.78;6092979;19;20367;-72
2023/12/17 00:31:33;;;;;;;6.03;3.22;;;;;;;2.36;100.00;100497.88;6091111;19;20006;-72
2023/12/17 00:33:34;;;;;;;7.90;3.50;;;;;;;2.35;100.00;100495.41;6093451;19;20006;-72
2023/12/17 00:35:34;;;;;;;6.78;2.90;;;;;;;2.30;100.00;100489.94;6091885;19;20007;-72
2023/12/17 00:37:34;;;;;;;7.63;3.17;;;;;;;2.24;100.00;100494.59;6093503;19;20010;-72
2023/12/17 00:39:35;;;;;;;6.78;2.97;;;;;;;2.16;100.00;100489.69;6092954;19;20440;-72
2023/12/17 00:41:35;;;;;;;5.68;2.90;;;;;;;2.11;100.00;100487.78;6092790;19;20010;-72
2023/12/17 00:43:36;;;;;;;5.38;2.85;;;;;;;2.06;100.00;100490.47;6092738;19;20011;-72
2023/12/17 00:45:36;;;;;;;5.65;3.13;;;;;;;2.03;100.00;100501.16;6083355;19;20354;-72
2023/12/17 00:47:36;;;;;;;5.88;3.28;;;;;;;2.02;100.00;100503.06;6086499;19;20002;-72
2023/12/17 00:49:37;;;;;;;10.23;3.95;;;;;;;2.03;100.00;100498.41;6088765;19;20007;-72
2023/12/17 00:51:37;;;;;;;9.95;3.45;;;;;;;2.14;100.00;100502.78;6099260;19;20030;-72
2023/12/17 00:53:37;;;;;;;8.48;3.47;;;;;;;2.16;100.00;100506.91;6100990;19;20070;-72
2023/12/17 00:55:38;;;;;;;6.63;3.35;;;;;;;2.17;100.00;100513.19;6100190;19;20013;-72
2023/12/17 00:57:38;;;;;;;10.13;3.58;;;;;;;2.15;100.00;100512.59;6099825;19;20006;-72
2023/12/17 00:59:38;;;;;;;5.45;3.40;;;;;;;2.12;100.00;100508.53;6100893;19;20010;-72
2023/12/17 01:01:39;;;;;;;5.82;3.15;;;;;;;2.07;100.00;100508.53;6099913;19;20010;-72
2023/12/17 01:03:39;;;;;;;6.65;3.25;;;;;;;1.96;100.00;100515.06;6099592;19;20398;-72
2023/12/17 01:05:39;;;;;;;5.57;2.80;;;;;;;1.95;100.00;100521.63;6100244;19;20276;-72
2023/12/17 01:07:40;;;;;;;4.88;3.55;;;;;;;1.94;100.00;100512.59;6100704;19;20119;-72
2023/12/17 01:09:40;;;;;;;5.55;3.28;;;;;;;1.96;100.00;100513.16;6100006;19;20007;-72
2023/12/17 01:11:42;;;;;;;4.32;2.95;;;;;;;2.06;100.00;100516.97;6098472;19;20007;-72
2023/12/17 01:13:42;;;;;;;5.10;2.90;;;;;;;2.06;100.00;100511.50;6100724;19;20442;-72
2023/12/17 01:15:42;;;;;;;6.78;3.42;;;;;;;2.05;100.00;100515.34;6099513;19;20024;-72
2023/12/17 01:17:43;;;;;;;5.40;3.30;;;;;;;2.02;100.00;100505.78;6100720;19;20107;-72
2023/12/17 01:19:43;;;;;;;5.80;3.17;;;;;;;2.03;100.00;100512.06;6099924;19;20315;-72
2023/12/17 01:21:43;;;;;;;5.38;3.03;;;;;;;2.02;100.00;100516.72;6098403;19;20028;-72
2023/12/17 01:23:44;;;;;;;6.97;3.15;;;;;;;2.01;100.00;100517.81;6099094;19;20376;-72
2023/12/17 01:25:44;;;;;;;6.45;3.10;;;;;;;1.98;100.00;100510.13;6099087;19;19999;-72
2023/12/17 01:27:44;;;;;;;7.72;3.47;;;;;;;2.05;100.00;100521.63;6099835;19;20006;-72
2023/12/17 01:29:45;;;;;;;6.20;3.47;;;;;;;2.06;100.00;100500.59;6099412;19;20125;-72
2023/12/17 01:31:45;;;;;;;5.68;3.53;;;;;;;2.00;100.00;100507.16;6099589;19;20003;-72
2023/12/17 01:33:45;;;;;;;8.00;4.00;;;;;;;1.91;100.00;100498.69;6099901;19;20002;-72
2023/12/17 01:35:46;;;;;;;9.38;4.18;;;;;;;1.79;100.00;100501.66;6099258;19;20031;-71
2023/12/17 01:37:47;;;;;;;6.63;4.13;;;;;;;1.70;100.00;100492.38;6099227;19;20431;-72
2023/12/17 01:39:47;;;;;;;8.45;4.72;;;;;;;1.58;100.00;100487.19;6101878;19;20014;-72
2023/12/17 01:41:47;;;;;;;8.77;4.47;;;;;;;1.49;100.00;100480.63;6105017;19;20102;-72
2023/12/17 01:43:48;;;;;;;7.85;4.53;;;;;;;1.40;100.00;100491.19;6105019;19;20470;-71
2023/12/17 01:45:49;;;;;;;6.00;3.95;;;;;;;1.39;100.00;100492.28;6105439;19;20007;-72
2023/12/17 01:47:49;;;;;;;9.20;4.72;;;;;;;1.43;100.00;100491.78;6105027;19;20587;-72
2023/12/17 01:49:50;;;;;;;8.70;3.97;;;;;;;1.46;100.00;100489.31;6103810;19;20062;-72
2023/12/17 01:51:51;;;;;;;10.23;3.88;;;;;;;1.56;100.00;100494.78;6105485;19;20011;-72
2023/12/17 01:53:52;;;;;;;7.03;3.92;;;;;;;1.64;100.00;100485.25;6104797;19;20038;-72
2023/12/17 01:55:52;;;;;;;6.82;3.45;;;;;;;1.70;100.00;100486.91;6104012;19;20006;-72
2023/12/17 01:57:53;;;;;;;8.02;3.05;;;;;;;1.88;100.00;100491.84;6102731;19;20805;-72
2023/12/17 01:59:53;;;;;;;7.75;3.28;;;;;;;2.00;100.00;100488.06;6103868;19;20303;-72
2023/12/17 02:01:55;;;;;;;4.90;3.05;;;;;;;2.08;100.00;100477.41;6104369;19;20007;-72
2023/12/17 02:03:55;;;;;;;6.47;3.10;;;;;;;2.10;100.00;100479.84;6103645;19;20023;-72
2023/12/17 02:05:56;;;;;;;6.22;3.33;;;;;;;2.15;100.00;100480.69;6103528;19;20011;-72
2023/12/17 02:07:56;;;;;;;5.82;3.38;;;;;;;2.18;100.00;100484.78;6104885;19;20463;-72
2023/12/17 02:09:56;;;;;;;6.15;3.22;;;;;;;2.14;100.00;100483.66;6102798;19;20013;-72
2023/12/17 02:11:57;;;;;;;8.20;3.53;;;;;;;2.08;100.00;100491.06;6105082;19;20034;-72
2023/12/17 02:13:57;;;;;;;4.88;3.17;;;;;;;2.04;100.00;100484.50;6105088;19;20062;-72
2023/12/17 02:15:57;;;;;;;5.70;3.33;;;;;;;1.98;100.00;100497.31;6103405;19;20014;-72
2023/12/17 02:17:58;;;;;;;6.53;3.08;;;;;;;1.89;100.00;100489.94;6104713;19;20123;-72
2023/12/17 02:19:58;;;;;;;4.25;3.00;;;;;;;1.87;100.00;100489.41;6104112;19;20247;-72
2023/12/17 02:21:59;;;;;;;5.15;2.92;;;;;;;1.89;100.00;100479.00;6104014;19;20474;-72
2023/12/17 02:23:59;;;;;;;4.47;2.97;;;;;;;2.00;100.00;100486.13;6102924;19;20002;-72
2023/12/17 02:25:59;;;;;;;5.63;2.55;;;;;;;2.04;100.00;100470.00;6104250;19;20327;-72
2023/12/17 02:28:00;;;;;;;5.95;2.80;;;;;;;2.05;100.00;100468.91;6102988;19;20046;-72
2023/12/17 02:30:00;;;;;;;6.25;3.00;;;;;;;2.10;100.00;100463.47;6104102;19;20010;-72
2023/12/17 02:32:01;;;;;;;7.75;3.40;;;;;;;2.03;100.00;100474.66;6104458;19;20006;-71
2023/12/17 02:34:01;;;;;;;5.15;3.60;;;;;;;1.96;100.00;100465.91;6104147;19;20002;-72
2023/12/17 02:36:02;;;;;;;5.55;4.05;;;;;;;1.86;100.00;100465.91;6102725;19;20082;-72
2023/12/17 02:38:02;;;;;;;8.95;4.68;;;;;;;1.73;100.00;100461.81;6103350;19;20002;-72
2023/12/17 02:40:03;;;;;;;8.25;4.28;;;;;;;1.58;100.00;100472.72;6103543;19;20247;-71
2023/12/17 02:42:04;;;;;;;8.00;4.13;;;;;;;1.47;100.00;100474.59;6104168;19;21925;-72
2023/12/17 02:44:04;;;;;;;10.98;5.30;;;;;;;1.36;100.00;100487.38;6103234;19;20023;-71
2023/12/17 02:46:05;;;;;;;7.38;4.85;;;;;;;1.26;100.00;100481.91;6103997;19;21122;-72
2023/12/17 02:48:05;;;;;;;7.18;4.47;;;;;;;1.20;100.00;100482.97;6102633;19;20031;-72
2023/12/17 02:50:06;;;;;;;6.90;5.20;;;;;;;1.06;100.00;100479.09;6101463;19;20362;-72
2023/12/17 02:52:06;;;;;;;8.50;5.10;;;;;;;0.93;100.00;100488.59;6101964;19;20551;-72
2023/12/17 02:54:07;;;;;;;7.10;4.55;;;;;;;0.85;100.00;100486.38;6104044;19;20518;-72
2023/12/17 02:56:08;;;;;;;7.30;5.00;;;;;;;0.82;100.00;100490.41;6102620;19;20018;-72
2023/12/17 02:58:08;;;;;;;10.07;4.60;;;;;;;0.76;100.00;100493.41;6103500;19;20030;-71
2023/12/17 03:00:09;;;;;;;7.85;5.15;;;;;;;0.66;100.00;100488.69;6102235;19;20267;-71
2023/12/17 03:02:09;;;;;;;6.45;5.15;;;;;;;0.61;100.00;100498.75;6103166;19;20017;-72
2023/12/17 03:04:10;;;;;;;10.35;5.00;;;;;;;0.61;100.00;100487.88;6102861;19;20070;-72
2023/12/17 03:06:11;;;;;;;10.80;5.10;;;;;;;0.61;100.00;100488.69;6102454;19;20022;-72
2023/12/17 03:08:11;;;;;;;9.55;5.40;;;;;;;0.50;100.00;100495.16;6102869;19;20330;-72
2023/12/17 03:10:12;;;;;;;9.68;4.97;;;;;;;0.37;100.00;100501.88;6102189;19;20068;-72
2023/12/17 03:12:12;;;;;;;11.18;4.88;;;;;;;0.36;100.00;100500.22;6102468;19;20358;-72
2023/12/17 03:14:12;;;;;;;12.35;5.50;;;;;;;0.29;100.00;100491.47;6104317;19;20397;-72
2023/12/17 03:16:13;;;;;;;9.70;4.85;;;;;;;0.23;100.00;100495.22;6102783;19;20002;-72
2023/12/17 03:18:14;;;;;;;7.97;5.07;;;;;;;0.20;100.00;100493.03;6102074;19;20002;-72
2023/12/17 03:20:15;;;;;;;9.65;4.78;;;;;;;0.20;100.00;100487.59;6102024;19;20010;-72
2023/12/17 03:22:15;;;;;;;9.60;5.13;;;;;;;0.18;100.00;100482.41;6103194;19;20933;-72
2023/12/17 03:24:15;;;;;;;7.80;4.55;;;;;;;0.26;100.00;100478.38;6102467;19;20015;-72
2023/12/17 03:26:16;;;;;;;7.55;4.65;;;;;;;0.35;100.00;100476.00;6102925;19;20013;-72
2023/12/17 03:28:17;;;;;;;8.82;5.78;;;;;;;0.23;100.00;100476.16;6102953;19;20034;-72
2023/12/17 03:30:17;;;;;;;7.75;5.03;;;;;;;0.24;100.00;100466.91;6101865;19;20005;-72
2023/12/17 03:32:17;;;;;;;9.60;4.97;;;;;;;0.24;100.00;100461.47;6102542;19;19998;-71
2023/12/17 03:34:18;;;;;;;8.23;4.65;;;;;;;0.23;100.00;100452.47;6102983;19;20042;-72
2023/12/17 03:36:18;;;;;;;9.35;4.85;;;;;;;0.29;100.00;100450.63;6101888;19;20002;-72
2023/12/17 03:38:18;;;;;;;7.97;4.57;;;;;;;0.28;100.00;100443.53;6101196;19;20751;-71
2023/12/17 03:40:19;;;;;;;7.45;4.70;;;;;;;0.35;100.00;100437.88;6102050;19;20072;-72
2023/12/17 03:42:19;;;;;;;7.28;4.15;;;;;;;0.28;100.00;100444.34;6102754;19;20432;-72
2023/12/17 03:44:19;;;;;;;8.55;4.25;;;;;;;0.23;100.00;100430.69;6101967;19;20309;-72
2023/12/17 03:46:21;;;;;;;8.13;4.57;;;;;;;0.22;100.00;100420.06;6101947;19;20003;-72
2023/12/17 03:48:21;;;;;;;5.68;4.03;;;;;;;0.18;100.00;100424.44;6102375;19;20234;-72
2023/12/17 03:50:21;;;;;;;6.32;4.53;;;;;;;0.13;100.00;100427.09;6090577;19;20018;-72
2023/12/17 03:52:22;;;;;;;9.65;4.90;;;;;;;0.07;100.00;100417.25;6102543;19;20005;-72
2023/12/17 03:54:22;;;;;;;7.47;4.25;;;;;;;0.05;100.00;100409.34;6102561;19;20010;-72
2023/12/17 03:56:24;;;;;;;11.05;6.18;;;;;;;0.08;100.00;100399.84;6100580;19;20006;-71
2023/12/17 03:58:24;;;;;;;7.70;4.63;;;;;;;0.06;100.00;100407.44;6100785;19;20066;-72
2023/12/17 04:00:24;;;;;;;7.85;4.65;;;;;;;0.03;100.00;100405.25;6100200;19;20369;-72
2023/12/17 04:02:26;;;;;;;8.20;4.80;;;;;;;0.03;100.00;100407.97;6100700;19;20007;-71
2023/12/17 04:04:26;;;;;;;8.55;4.65;;;;;;;0.01;100.00;100404.72;6101441;19;20029;-71
2023/12/17 04:06:26;;;;;;;11.10;6.40;;;;;;;0.01;100.00;100394.66;6101807;19;20007;-72
2023/12/17 04:08:27;;;;;;;10.23;4.70;;;;;;;-0.01;100.00;100405.75;6099477;19;20003;-72
2023/12/17 04:10:28;;;;;;;6.65;4.22;;;;;;;-0.07;100.00;100398.66;6100809;19;20413;-72
2023/12/17 04:12:28;;;;;;;10.02;5.50;;;;;;;-0.14;100.00;100400.78;6102075;19;20006;-72
2023/12/17 04:14:28;;;;;;;10.25;5.00;;;;;;;-0.22;100.00;100406.72;6100712;19;20486;-72
2023/12/17 04:16:29;;;;;;;10.93;4.53;;;;;;;-0.17;100.00;100419.50;6099283;19;20017;-72
2023/12/17 04:18:29;;;;;;;8.25;4.72;;;;;;;-0.18;100.00;100412.44;6099961;19;20149;-72
2023/12/17 04:20:29;;;;;;;8.00;4.40;;;;;;;-0.30;100.00;100405.28;6097567;19;20402;-71
2023/12/17 04:22:30;;;;;;;6.90;4.80;;;;;;;-0.24;100.00;100395.28;6101089;19;20018;-72
2023/12/17 04:24:30;;;;;;;9.40;4.45;;;;;;;-0.23;100.00;100383.31;6101116;19;20349;-72
2023/12/17 04:26:30;;;;;;;7.15;4.95;;;;;;;-0.18;100.00;100390.66;6100702;19;20006;-71
2023/12/17 04:28:31;;;;;;;6.10;4.13;;;;;;;-0.20;100.00;100392.84;6101169;19;20007;-71
2023/12/17 04:30:31;;;;;;;11.70;5.53;;;;;;;-0.18;100.00;100391.50;6097404;19;20458;-72
2023/12/17 04:32:31;;;;;;;8.82;4.25;;;;;;;-0.20;100.00;100384.69;6100680;19;20010;-71
2023/12/17 04:34:32;;;;;;;8.35;4.60;;;;;;;-0.28;100.00;100380.53;6101244;19;20822;-72
2023/12/17 04:36:32;;;;;;;6.40;4.32;;;;;;;-0.33;100.00;100389.50;6101136;19;20499;-72
2023/12/17 04:38:32;;;;;;;119.07;50.72;;;;;;;-0.42;100.00;100382.88;6099481;19;20006;-72
2023/12/17 04:40:33;;;;;;;105.55;42.55;;;;;;;-0.45;100.00;100379.84;6099910;19;20029;-72
2023/12/17 04:42:33;;;;;;;66.38;28.42;;;;;;;-0.50;100.00;100367.03;6100784;19;20377;-72
2023/12/17 04:44:33;;;;;;;54.47;25.48;;;;;;;-0.50;100.00;100369.75;6099965;19;20027;-72
2023/12/17 04:46:34;;;;;;;52.60;22.88;;;;;;;-0.47;100.00;100366.53;6099699;19;20078;-72
2023/12/17 04:48:34;;;;;;;46.17;21.88;;;;;;;-0.39;100.00;100368.75;6101240;19;20006;-72
2023/12/17 04:50:35;;;;;;;43.10;18.92;;;;;;;-0.35;100.00;100369.06;6086329;19;20363;-72
2023/12/17 04:52:35;;;;;;;40.08;18.92;;;;;;;-0.31;100.00;100371.00;6086614;19;20353;-72
2023/12/17 04:54:35;;;;;;;26.80;12.75;;;;;;;-0.25;100.00;100376.47;6087817;19;20043;-72
2023/12/17 04:56:36;;;;;;;22.73;10.75;;;;;;;-0.28;100.00;100378.63;6085968;19;20358;-72
2023/12/17 04:58:36;;;;;;;17.13;8.93;;;;;;;-0.29;100.00;100384.34;6086953;19;20007;-71
2023/12/17 05:00:36;;;;;;;15.48;8.63;;;;;;;-0.31;100.00;100383.78;6084824;19;20524;-72
2023/12/17 05:02:37;;;;;;;13.50;7.22;;;;;;;-0.31;100.00;100384.59;6086026;19;19999;-72
2023/12/17 05:04:38;;;;;;;10.32;5.88;;;;;;;-0.28;100.00;100391.41;6086937;19;20114;-71
2023/12/17 05:06:38;;;;;;;14.93;6.10;;;;;;;-0.33;100.00;100394.13;6085750;19;20495;-72
2023/12/17 05:08:38;;;;;;;10.25;4.93;;;;;;;-0.37;100.00;100392.97;6087124;19;20016;-72
2023/12/17 05:10:39;;;;;;;9.98;5.03;;;;;;;-0.45;100.00;100402.44;6085398;19;20003;-72
2023/12/17 05:12:39;;;;;;;10.98;5.20;;;;;;;-0.49;100.00;100404.03;6086004;19;20002;-72
2023/12/17 05:14:40;;;;;;;7.60;4.97;;;;;;;-0.54;100.00;100408.59;6085826;19;20485;-72
2023/12/17 05:16:41;;;;;;;6.60;4.55;;;;;;;-0.59;100.00;100402.03;6085192;19;20376;-72
2023/12/17 05:18:41;;;;;;;10.07;5.70;;;;;;;-0.58;100.00;100395.53;6086460;19;19998;-72
2023/12/17 05:20:42;;;;;;;9.25;4.45;;;;;;;-0.62;100.00;100391.66;6084587;19;20402;-72
2023/12/17 05:22:42;;;;;;;6.03;4.30;;;;;;;-0.61;100.00;100395.22;6085861;19;20346;-72
2023/12/17 05:24:43;;;;;;;6.30;4.68;;;;;;;-0.60;100.00;100396.84;6085499;19;20005;-72
2023/12/17 05:26:43;;;;;;;9.13;4.97;;;;;;;-0.59;100.00;100396.59;6084677;19;20003;-72
2023/12/17 05:28:43;;;;;;;9.52;4.70;;;;;;;-0.49;100.00;100398.59;6086934;19;20227;-72
2023/12/17 05:30:44;;;;;;;8.55;4.78;;;;;;;-0.37;100.00;100396.53;6084665;19;20384;-72
2023/12/17 05:32:44;;;;;;;7.63;4.80;;;;;;;-0.31;100.00;100398.22;6084463;19;19999;-72
2023/12/17 05:34:44;;;;;;;7.18;4.47;;;;;;;-0.31;100.00;100391.94;6084894;19;20025;-72
2023/12/17 05:36:45;;;;;;;6.75;4.30;;;;;;;-0.32;100.00;100390.31;6084791;19;20011;-71
2023/12/17 05:38:46;;;;;;;8.18;3.90;;;;;;;-0.38;100.00;100400.31;6085581;19;20453;-71
2023/12/17 05:40:46;;;;;;;6.68;4.28;;;;;;;-0.38;100.00;100391.34;6084556;19;21341;-71
2023/12/17 05:42:46;;;;;;;8.90;4.70;;;;;;;-0.33;100.00;100391.41;6085054;19;20011;-72
2023/12/17 05:44:47;;;;;;;9.00;3.97;;;;;;;-0.36;100.00;100394.63;6084398;19;20016;-72
2023/12/17 05:46:47;;;;;;;9.27;3.70;;;;;;;-0.41;100.00;100405.47;6085443;19;20002;-71
2023/12/17 05:48:47;;;;;;;7.47;4.10;;;;;;;-0.18;100.00;100407.00;6085363;19;20456;-72
2023/12/17 05:50:48;;;;;;;9.38;4.20;;;;;;;-0.23;100.00;100417.84;6095232;19;20482;-72
2023/12/17 05:52:49;;;;;;;8.80;4.35;;;;;;;-0.31;100.00;100408.28;6098746;19;20418;-72
2023/12/17 05:54:49;;;;;;;7.80;3.83;;;;;;;-0.40;100.00;100416.09;6099669;19;20015;-72
2023/12/17 05:56:49;;;;;;;5.47;3.80;;;;;;;-0.41;100.00;100402.75;6099065;19;20014;-72
2023/12/17 05:58:49;;;;;;;8.18;5.55;;;;;;;-0.48;100.00;100404.84;6098175;19;20002;-72
2023/12/17 06:00:50;;;;;;;14.82;7.70;;;;;;;-0.53;100.00;100405.63;6097880;19;20031;-71
2023/12/17 06:02:50;;;;;;;11.32;7.57;;;;;;;-0.60;100.00;100397.66;6097415;19;20011;-71
2023/12/17 06:04:51;;;;;;;12.68;8.40;;;;;;;-0.55;100.00;100402.34;6098316;19;20339;-71
2023/12/17 06:06:52;;;;;;;16.40;10.73;;;;;;;-0.49;100.00;100412.19;6098178;19;20090;-72
2023/12/17 06:08:53;;;;;;;11.60;8.13;;;;;;;-0.52;100.00;100417.31;6099384;19;20010;-72
2023/12/17 06:10:53;;;;;;;13.13;9.00;;;;;;;-0.50;100.00;100420.59;6097865;19;20122;-72
2023/12/17 06:12:53;;;;;;;12.10;8.35;;;;;;;-0.48;100.00;100429.34;6098703;19;20034;-71
2023/12/17 06:14:54;;;;;;;11.05;7.28;;;;;;;-0.52;100.00;100439.88;6098841;19;20090;-71
2023/12/17 06:16:54;;;;;;;8.05;5.57;;;;;;;-0.55;100.00;100431.44;6098807;19;20339;-71
2023/12/17 06:18:55;;;;;;;8.27;4.65;;;;;;;-0.63;100.00;100430.81;6099003;19;20398;-71
2023/12/17 06:20:55;;;;;;;8.10;5.00;;;;;;;-0.66;100.00;100425.91;6098467;19;20320;-72
2023/12/17 06:22:56;;;;;;;11.85;5.07;;;;;;;-0.75;100.00;100413.81;6096987;19;20030;-71
2023/12/17 06:24:56;;;;;;;6.78;4.70;;;;;;;-0.76;100.00;100412.19;6098526;19;20028;-72
2023/12/17 06:26:56;;;;;;;6.80;4.57;;;;;;;-0.72;100.00;100415.22;6100954;19;20028;-72
2023/12/17 06:28:57;;;;;;;9.18;4.90;;;;;;;-0.75;100.00;100416.53;6104785;19;20017;-72
2023/12/17 06:30:58;;;;;;;6.05;4.07;;;;;;;-0.76;100.00;100422.25;6102528;19;20062;-72
2023/12/17 06:32:58;;;;;;;8.25;4.47;;;;;;;-0.74;100.00;100429.09;6103496;19;20011;-71
2023/12/17 06:34:58;;;;;;;10.68;5.63;;;;;;;-0.80;100.00;100427.38;6104225;19;19999;-71
2023/12/17 06:36:59;;;;;;;7.93;5.07;;;;;;;-0.76;100.00;100428.50;6105288;19;20011;-72
2023/12/17 06:38:59;;;;;;;6.68;4.93;;;;;;;-0.68;100.00;100432.66;6104772;19;20026;-71
2023/12/17 06:40:59;;;;;;;9.85;5.22;;;;;;;-0.62;100.00;100435.16;6104544;19;20086;-72
2023/12/17 06:43:00;;;;;;;7.88;3.97;;;;;;;-0.54;100.00;100439.31;6102563;19;20006;-71
2023/12/17 06:45:01;;;;;;;6.18;4.00;;;;;;;-0.49;100.00;100454.88;6104993;19;20013;-72
2023/12/17 06:47:01;;;;;;;6.28;3.92;;;;;;;-0.47;100.00;100450.81;6104543;19;20022;-71
2023/12/17 06:49:02;;;;;;;8.13;3.63;;;;;;;-0.50;100.00;100450.50;6105308;19;20006;-72
2023/12/17 06:51:03;;;;;;;5.60;3.28;;;;;;;-0.50;100.00;100458.66;6097272;19;20018;-72
2023/12/17 06:53:03;;;;;;;8.85;4.30;;;;;;;-0.52;100.00;100450.75;6104671;19;20014;-71
2023/12/17 06:55:06;;;;;;;7.85;3.95;;;;;;;-0.58;100.00;100466.22;6104310;19;20034;-72
2023/12/17 06:57:06;;;;;;;5.13;3.58;;;;;;;-0.57;100.00;100465.16;6103954;19;20025;-71
2023/12/17 06:59:06;;;;;;;6.75;3.33;;;;;;;-0.60;100.00;100465.63;6104318;19;20010;-71
2023/12/17 07:01:07;;;;;;;7.47;3.38;;;;;;;-0.66;100.00;100476.75;6103623;19;20014;-71
2023/12/17 07:03:07;;;;;;;5.25;3.33;;;;;;;-0.68;100.00;100470.72;6103435;19;20010;-72
2023/12/17 07:05:08;;;;;;;6.18;3.40;;;;;;;-0.73;100.00;100476.13;6104414;19;20013;-72
2023/12/17 07:07:09;;;;;;;6.65;3.53;;;;;;;-0.83;100.00;100478.69;6104289;19;20006;-72
2023/12/17 07:09:09;;;;;;;6.53;3.10;;;;;;;-0.83;100.00;100471.34;6104398;19;20017;-71
2023/12/17 07:11:10;;;;;;;8.18;3.20;;;;;;;-0.86;100.00;100467.25;6102728;19;20027;-71
2023/12/17 07:13:11;;;;;;;5.40;3.75;;;;;;;-0.96;100.00;100471.75;6104275;19;20023;-72
2023/12/17 07:15:11;;;;;;;11.43;4.25;;;;;;;-0.91;100.00;100474.53;6104684;19;20018;-72
2023/12/17 07:17:11;;;;;;;10.50;4.20;;;;;;;-0.94;100.00;100475.84;6104483;19;20026;-72
2023/12/17 07:19:12;;;;;;;8.98;5.28;;;;;;;-0.94;100.00;100483.19;6103537;19;20006;-72
2023/12/17 07:21:12;;;;;;;9.85;5.53;;;;;;;-1.02;100.00;100483.63;6102751;19;20006;-71
2023/12/17 07:23:13;;;;;;;15.10;7.32;;;;;;;-1.05;100.00;100481.44;6100076;19;20018;-72
2023/12/17 07:25:15;;;;;;;12.70;6.60;;;;;;;-1.11;100.00;100485.16;6103430;19;20010;-71
2023/12/17 07:27:16;;;;;;;13.20;5.30;;;;;;;-1.15;100.00;100474.81;6103102;19;20007;-71
2023/12/17 07:29:16;;;;;;;10.85;5.55;;;;;;;-1.15;100.00;100474.81;6103314;19;20003;-72
2023/12/17 07:31:16;;;;;;;13.77;6.07;;;;;;;-1.14;100.00;100471.00;6101536;19;20034;-71
2023/12/17 07:33:17;;;;;;;13.45;5.88;;;;;;;-1.08;100.00;100468.34;6100979;19;20014;-72
2023/12/17 07:35:17;;;;;;;12.63;6.18;;;;;;;-1.10;100.00;100471.31;6102539;19;20375;-71
2023/12/17 07:37:17;;;;;;;17.48;6.82;;;;;;;-1.08;100.00;100469.16;6102518;19;20081;-71
2023/12/17 07:39:18;;;;;;;15.88;7.13;;;;;;;-1.04;100.00;100466.78;6103080;19;20019;-72
2023/12/17 07:41:18;;;;;;;15.45;7.35;;;;;;;-1.01;100.00;100477.13;6100125;19;20003;-72
2023/12/17 07:43:19;;;;;;;11.32;7.10;;;;;;;-0.98;100.00;100465.78;6103071;19;20002;-71
2023/12/17 07:45:19;;;;;;;15.55;7.25;;;;;;;-0.94;100.00;100478.56;6100899;19;20597;-72
2023/12/17 07:47:20;;;;;;;12.95;7.90;;;;;;;-0.95;100.00;100482.38;6101565;19;20006;-71
2023/12/17 07:49:21;;;;;;;13.27;6.65;;;;;;;-0.97;100.00;100489.97;6102844;19;20054;-71
2023/12/17 07:51:21;;;;;;;10.05;5.97;;;;;;;-0.97;100.00;100510.88;6100018;19;20011;-72
2023/12/17 07:53:21;;;;;;;13.05;7.75;;;;;;;-1.03;100.00;100493.69;6101823;19;20591;-72
2023/12/17 07:55:22;;;;;;;8.02;6.03;;;;;;;-1.00;100.00;100495.06;6101788;19;20015;-72
2023/12/17 07:57:23;;;;;;;9.27;5.50;;;;;;;-0.97;100.00;100508.16;6101627;19;19999;-72
2023/12/17 07:59:23;;;;;;;9.23;6.18;;;;;;;-0.93;100.00;100503.84;6102314;19;20015;-71
2023/12/17 08:01:31;;;;;;;9.18;6.32;;;;;;;-0.87;100.00;100503.66;6097837;19;20006;-71
2023/12/17 08:03:31;;;;;;;11.93;7.28;;;;;;;-0.78;100.00;100501.31;6101747;19;20006;-72
2023/12/17 08:05:32;;;;;;;10.85;6.50;;;;;;;-0.72;100.00;100494.06;6102002;19;20285;-72
2023/12/17 08:07:32;;;;;;;11.00;6.75;;;;;;;-0.64;100.00;100493.59;6100978;19;20014;-71
2023/12/17 08:09:35;;;;;;;9.98;7.57;;;;;;;-0.58;100.00;100496.13;6101058;19;20396;-72
2023/12/17 08:11:35;;;;;;;17.15;8.80;;;;;;;-0.62;100.00;100496.88;6099912;19;20017;-72
2023/12/17 08:13:35;;;;;;;11.63;7.50;;;;;;;-0.64;100.00;100499.88;6100572;19;20475;-72
2023/12/17 08:15:36;;;;;;;13.50;8.57;;;;;;;-0.60;100.00;100494.72;6098590;19;20370;-71
2023/12/17 08:17:36;;;;;;;15.65;9.77;;;;;;;-0.54;100.00;100501.88;6101015;19;20423;-71
2023/12/17 08:19:38;;;;;;;13.32;8.77;;;;;;;-0.51;100.00;100501.34;6101818;19;20031;-72
2023/12/17 08:21:38;;;;;;;16.08;10.70;;;;;;;-0.45;100.00;100511.22;6099692;19;20016;-72
2023/12/17 08:23:39;;;;;;;17.17;10.93;;;;;;;-0.41;100.00;100500.66;6101405;19;20006;-72
2023/12/17 08:25:39;;;;;;;14.27;9.75;;;;;;;-0.36;100.00;100498.78;6099853;19;20014;-72
2023/12/17 08:27:39;;;;;;;13.90;9.88;;;;;;;-0.28;100.00;100505.66;6101457;19;20002;-72
2023/12/17 08:29:41;;;;;;;12.68;8.15;;;;;;;-0.24;100.00;100503.28;6100250;19;20011;-72
2023/12/17 08:31:45;;;;;;;13.63;8.45;;;;;;;-0.21;100.00;100502.75;6098746;19;20010;-72
2023/12/17 08:33:51;;;;;;;15.45;8.82;;;;;;;-0.15;100.00;100507.97;6101044;19;20224;-71
2023/12/17 08:35:51;;;;;;;14.48;8.18;;;;;;;-0.12;100.00;100504.75;6100355;19;20357;-71
2023/12/17 08:37:51;;;;;;;11.98;7.63;;;;;;;-0.05;100.00;100496.38;6101065;19;20015;-72
2023/12/17 08:39:53;;;;;;;10.98;7.00;;;;;;;0.00;100.00;100493.69;6098287;19;20027;-71
2023/12/17 08:41:53;;;;;;;13.45;7.95;;;;;;;0.08;100.00;100497.81;6100553;19;20435;-72
2023/12/17 08:43:54;;;;;;;28.38;14.02;;;;;;;0.12;100.00;100498.97;6101034;19;20010;-71
2023/12/17 08:45:54;;;;;;;41.95;16.30;;;;;;;0.11;100.00;100489.97;6099648;19;20345;-71
2023/12/17 08:47:55;;;;;;;36.05;19.10;;;;;;;0.13;100.00;100498.69;6099967;19;19999;-72
2023/12/17 08:49:56;;;;;;;38.90;19.60;;;;;;;0.12;100.00;100494.34;6084410;19;20006;-72
2023/12/17 08:51:56;;;;;;;35.17;17.02;;;;;;;0.16;100.00;100489.16;6098540;19;20017;-72
2023/12/17 08:53:57;;;;;;;32.97;16.60;;;;;;;0.16;100.00;100490.00;6099144;19;20014;-71
2023/12/17 08:55:57;;;;;;;27.88;13.95;;;;;;;0.20;100.00;100491.13;6099683;19;20030;-72
2023/12/17 08:57:57;;;;;;;23.42;12.95;;;;;;;0.24;100.00;100477.81;6100153;19;20003;-71
2023/12/17 08:59:58;;;;;;;16.92;10.63;;;;;;;0.27;100.00;100480.03;6095376;19;20291;-72
2023/12/17 09:01:58;;;;;;;25.48;12.30;;;;;;;0.30;100.00;100475.94;6099251;19;20002;-71
2023/12/17 09:03:58;;;;;;;16.20;9.65;;;;;;;0.32;100.00;100485.47;6098166;19;20539;-72
2023/12/17 09:05:59;;;;;;;15.07;9.05;;;;;;;0.31;100.00;100481.13;6098019;19;20002;-71
2023/12/17 09:07:59;;;;;;;13.90;10.65;;;;;;;0.30;100.00;100482.22;6098131;19;20037;-72
2023/12/17 09:10:00;;;;;;;17.23;10.27;;;;;;;0.36;100.00;100483.06;6098991;19;20049;-71
2023/12/17 09:12:01;;;;;;;20.23;9.63;;;;;;;0.37;100.00;100482.81;6099400;19;19999;-72
2023/12/17 09:14:01;;;;;;;22.83;10.43;;;;;;;0.40;100.00;100471.38;6097741;19;20082;-71